sensor_id;sensor_type;location;lat;lon;timestamp;pressure;altitude;pressure_sealevel;temperature;humidity
57763;BME280;43592;42.524;12.052;2023-06-10T00:01:45;96622.25;;;16.84;100.00
57763;BME280;43592;42.524;12.052;2023-06-10T00:04:13;96624.97;;;16.84;100.00
57763;BME280;43592;42.524;12.052;2023-06-10T00:06:39;96629.22;;;16.85;100.00
57763;BME280;43592;42.524;12.052;2023-06-10T00:09:06;96635.41;;;16.86;100.00
57763;BME280;43592;42.524;12.052;2023-06-10T00:11:35;96633.47;;;16.86;100.00
57763;BME280;43592;42.524;12.052;2023-06-10T00:14:01;96627.69;;;16.88;100.00
57763;BME280;43592;42.524;12.052;2023-06-10T00:16:27;96631.53;;;16.87;100.00
57763;BME280;43592;42.524;12.052;2023-06-10T00:18:53;96619.94;;;16.86;100.00
57763;BME280;43592;42.524;12.052;2023-06-10T00:21:21;96623.81;;;16.85;100.00
57763;BME280;43592;42.524;12.052;2023-06-10T00:23:46;96621.47;;;16.83;100.00
57763;BME280;43592;42.524;12.052;2023-06-10T00:26:12;96626.50;;;16.81;100.00
57763;BME280;43592;42.524;12.052;2023-06-10T00:28:37;96631.13;;;16.81;100.00
57763;BME280;43592;42.524;12.052;2023-06-10T00:31:03;96626.88;;;16.80;100.00
57763;BME280;43592;42.524;12.052;2023-06-10T00:33:29;96619.94;;;16.79;100.00
57763;BME280;43592;42.524;12.052;2023-06-10T00:35:55;96621.47;;;16.80;100.00
57763;BME280;43592;42.524;12.052;2023-06-10T00:38:20;96615.31;;;16.79;100.00
57763;BME280;43592;42.524;12.052;2023-06-10T00:40:46;96624.94;;;16.80;100.00
57763;BME280;43592;42.524;12.052;2023-06-10T00:43:11;96621.84;;;16.78;100.00
57763;BME280;43592;42.524;12.052;2023-06-10T00:45:37;96614.47;;;16.75;100.00
57763;BME280;43592;42.524;12.052;2023-06-10T00:48:02;96612.94;;;16.74;100.00
57763;BME280;43592;42.524;12.052;2023-06-10T00:50:28;96614.47;;;16.72;100.00
57763;BME280;43592;42.524;12.052;2023-06-10T00:52:54;96618.69;;;16.69;100.00
57763;BME280;43592;42.524;12.052;2023-06-10T00:55:21;96625.25;;;16.68;100.00
57763;BME280;43592;42.524;12.052;2023-06-10T00:57:46;96628.72;;;16.65;100.00
57763;BME280;43592;42.524;12.052;2023-06-10T01:00:14;96618.63;;;16.58;100.00
57763;BME280;43592;42.524;12.052;2023-06-10T01:02:40;96623.25;;;16.54;100.00
57763;BME280;43592;42.524;12.052;2023-06-10T01:05:06;96618.63;;;16.51;100.00
57763;BME280;43592;42.524;12.052;2023-06-10T01:10:19;96616.66;;;16.45;100.00
57763;BME280;43592;42.524;12.052;2023-06-10T01:12:48;96605.44;;;16.43;100.00
57763;BME280;43592;42.524;12.052;2023-06-10T01:15:17;96606.22;;;16.39;100.00
57763;BME280;43592;42.524;12.052;2023-06-10T01:17:59;96599.63;;;16.37;100.00
57763;BME280;43592;42.524;12.052;2023-06-10T01:20:26;96606.56;;;16.34;100.00
57763;BME280;43592;42.524;12.052;2023-06-10T01:22:55;96611.19;;;16.34;100.00
57763;BME280;43592;42.524;12.052;2023-06-10T01:25:21;96599.22;;;16.31;100.00
57763;BME280;43592;42.524;12.052;2023-06-10T01:28:08;96596.50;;;16.31;100.00
57763;BME280;43592;42.524;12.052;2023-06-10T01:30:44;96606.16;;;16.32;100.00
57763;BME280;43592;42.524;12.052;2023-06-10T01:33:12;96598.81;;;16.33;100.00
57763;BME280;43592;42.524;12.052;2023-06-10T01:35:42;96604.22;;;16.33;100.00
57763;BME280;43592;42.524;12.052;2023-06-10T01:38:08;96604.22;;;16.33;100.00
57763;BME280;43592;42.524;12.052;2023-06-10T01:40:35;96603.44;;;16.32;100.00
57763;BME280;43592;42.524;12.052;2023-06-10T01:43:01;96600.00;;;16.32;100.00
57763;BME280;43592;42.524;12.052;2023-06-10T01:45:27;96600.00;;;16.32;100.00
57763;BME280;43592;42.524;12.052;2023-06-10T01:47:52;96600.34;;;16.30;100.00
57763;BME280;43592;42.524;12.052;2023-06-10T01:50:18;96599.19;;;16.28;100.00
57763;BME280;43592;42.524;12.052;2023-06-10T01:52:44;96591.47;;;16.26;100.00
57763;BME280;43592;42.524;12.052;2023-06-10T01:55:10;96593.38;;;16.22;100.00
57763;BME280;43592;42.524;12.052;2023-06-10T01:57:35;96605.31;;;16.17;100.00
57763;BME280;43592;42.524;12.052;2023-06-10T02:00:01;96600.25;;;16.12;100.00
57763;BME280;43592;42.524;12.052;2023-06-10T02:02:28;96589.41;;;16.05;100.00
57763;BME280;43592;42.524;12.052;2023-06-10T02:04:53;96590.94;;;16.03;100.00
57763;BME280;43592;42.524;12.052;2023-06-10T02:07:19;96589.34;;;15.98;100.00
57763;BME280;43592;42.524;12.052;2023-06-10T02:09:44;96581.66;;;15.97;100.00
57763;BME280;43592;42.524;12.052;2023-06-10T02:12:10;96573.91;;;15.95;100.00
57763;BME280;43592;42.524;12.052;2023-06-10T02:14:36;96579.28;;;15.91;100.00
57763;BME280;43592;42.524;12.052;2023-06-10T02:17:02;96571.56;;;15.90;100.00
57763;BME280;43592;42.524;12.052;2023-06-10T02:19:27;96576.97;;;15.90;100.00
57763;BME280;43592;42.524;12.052;2023-06-10T02:21:53;96571.97;;;15.88;100.00
57763;BME280;43592;42.524;12.052;2023-06-10T02:24:19;96577.34;;;15.88;100.00
57763;BME280;43592;42.524;12.052;2023-06-10T02:26:45;96577.34;;;15.88;100.00
57763;BME280;43592;42.524;12.052;2023-06-10T02:29:11;96582.34;;;15.90;100.00
57763;BME280;43592;42.524;12.052;2023-06-10T02:31:37;96585.44;;;15.88;100.00
57763;BME280;43592;42.524;12.052;2023-06-10T02:34:03;96580.41;;;15.87;100.00
57763;BME280;43592;42.524;12.052;2023-06-10T02:36:29;96571.91;;;15.85;100.00
57763;BME280;43592;42.524;12.052;2023-06-10T02:38:54;96570.72;;;15.82;100.00
57763;BME280;43592;42.524;12.052;2023-06-10T02:41:20;96574.97;;;15.80;100.00
57763;BME280;43592;42.524;12.052;2023-06-10T02:43:47;96569.19;;;15.78;100.00
57763;BME280;43592;42.524;12.052;2023-06-10T02:46:12;96564.53;;;15.75;100.00
57763;BME280;43592;42.524;12.052;2023-06-10T02:48:42;96560.66;;;15.72;100.00
57763;BME280;43592;42.524;12.052;2023-06-10T02:51:09;96564.09;;;15.69;100.00
57763;BME280;43592;42.524;12.052;2023-06-10T02:53:34;96552.88;;;15.67;100.00
57763;BME280;43592;42.524;12.052;2023-06-10T02:56:00;96549.75;;;15.65;100.00
57763;BME280;43592;42.524;12.052;2023-06-10T02:58:25;96552.09;;;15.66;100.00
57763;BME280;43592;42.524;12.052;2023-06-10T03:00:51;96547.16;;;15.68;100.00
57763;BME280;43592;42.524;12.052;2023-06-10T03:03:17;96546.00;;;15.73;100.00
57763;BME280;43592;42.524;12.052;2023-06-10T03:05:42;96548.72;;;15.77;100.00
57763;BME280;43592;42.524;12.052;2023-06-10T03:08:07;96547.19;;;15.79;100.00
57763;BME280;43592;42.524;12.052;2023-06-10T03:10:33;96552.22;;;15.77;100.00
57763;BME280;43592;42.524;12.052;2023-06-10T03:12:58;96553.34;;;15.76;100.00
57763;BME280;43592;42.524;12.052;2023-06-10T03:15:24;96554.50;;;15.75;100.00
57763;BME280;43592;42.524;12.052;2023-06-10T03:17:50;96552.97;;;15.74;100.00
57763;BME280;43592;42.524;12.052;2023-06-10T03:20:15;96550.28;;;15.74;100.00
57763;BME280;43592;42.524;12.052;2023-06-10T03:22:42;96550.28;;;15.74;100.00
57763;BME280;43592;42.524;12.052;2023-06-10T03:25:08;96559.50;;;15.73;100.00
57763;BME280;43592;42.524;12.052;2023-06-10T03:27:39;96556.78;;;15.73;100.00
57763;BME280;43592;42.524;12.052;2023-06-10T03:30:05;96553.75;;;15.75;100.00
57763;BME280;43592;42.524;12.052;2023-06-10T03:32:31;96557.19;;;15.75;100.00
57763;BME280;43592;42.524;12.052;2023-06-10T03:34:56;96556.44;;;15.75;100.00
57763;BME280;43592;42.524;12.052;2023-06-10T03:37:23;96554.50;;;15.75;100.00
57763;BME280;43592;42.524;12.052;2023-06-10T03:39:49;96561.84;;;15.75;100.00
57763;BME280;43592;42.524;12.052;2023-06-10T03:42:15;96566.47;;;15.74;100.00
57763;BME280;43592;42.524;12.052;2023-06-10T03:44:40;96555.25;;;15.72;100.00
57763;BME280;43592;42.524;12.052;2023-06-10T03:47:05;96556.03;;;15.73;100.00
57763;BME280;43592;42.524;12.052;2023-06-10T03:49:31;96564.13;;;15.73;100.00
57763;BME280;43592;42.524;12.052;2023-06-10T03:51:56;96549.88;;;15.72;100.00
57763;BME280;43592;42.524;12.052;2023-06-10T03:54:22;96563.75;;;15.74;100.00
57763;BME280;43592;42.524;12.052;2023-06-10T03:56:48;96569.19;;;15.78;100.00
57763;BME280;43592;42.524;12.052;2023-06-10T03:59:13;96565.72;;;15.81;100.00
57763;BME280;43592;42.524;12.052;2023-06-10T04:01:39;96556.47;;;15.82;100.00
57763;BME280;43592;42.524;12.052;2023-06-10T04:04:06;96558.03;;;15.83;100.00
57763;BME280;43592;42.524;12.052;2023-06-10T04:06:32;96564.97;;;15.84;100.00
57763;BME280;43592;42.524;12.052;2023-06-10T04:08:57;96555.34;;;15.83;100.00
57763;BME280;43592;42.524;12.052;2023-06-10T04:11:25;96561.50;;;15.83;100.00
57763;BME280;43592;42.524;12.052;2023-06-10T04:13:51;96566.50;;;15.85;100.00
57763;BME280;43592;42.524;12.052;2023-06-10T04:16:17;96561.53;;;15.87;100.00
57763;BME280;43592;42.524;12.052;2023-06-10T04:18:42;96558.47;;;15.88;100.00
57763;BME280;43592;42.524;12.052;2023-06-10T04:21:08;96555.38;;;15.93;100.00
57763;BME280;43592;42.524;12.052;2023-06-10T04:23:35;96557.72;;;15.95;100.00
57763;BME280;43592;42.524;12.052;2023-06-10T04:26:01;96562.38;;;15.98;100.00
57763;BME280;43592;42.524;12.052;2023-06-10T04:28:27;96565.47;;;16.00;100.00
57763;BME280;43592;42.524;12.052;2023-06-10T04:30:52;96559.31;;;16.03;100.00
57763;BME280;43592;42.524;12.052;2023-06-10T04:33:18;96562.03;;;16.07;100.00
57763;BME280;43592;42.524;12.052;2023-06-10T04:35:44;96563.97;;;16.10;100.00
57763;BME280;43592;42.524;12.052;2023-06-10T04:38:09;96556.69;;;16.14;100.00
57763;BME280;43592;42.524;12.052;2023-06-10T04:40:35;96557.09;;;16.20;100.00
57763;BME280;43592;42.524;12.052;2023-06-10T04:43:00;96561.78;;;16.30;100.00
57763;BME280;43592;42.524;12.052;2023-06-10T04:45:26;96550.25;;;16.36;100.00
57763;BME280;43592;42.524;12.052;2023-06-10T04:47:52;96552.63;;;16.45;100.00
57763;BME280;43592;42.524;12.052;2023-06-10T04:50:17;96542.63;;;16.56;100.00
57763;BME280;43592;42.524;12.052;2023-06-10T04:52:43;96538.81;;;16.68;100.00
57763;BME280;43592;42.524;12.052;2023-06-10T04:55:10;96534.25;;;16.79;100.00
57763;BME280;43592;42.524;12.052;2023-06-10T04:57:36;96530.78;;;16.90;100.00
57763;BME280;43592;42.524;12.052;2023-06-10T05:00:02;96530.44;;;17.02;100.00
57763;BME280;43592;42.524;12.052;2023-06-10T05:02:31;96530.44;;;17.13;100.00
57763;BME280;43592;42.524;12.052;2023-06-10T05:04:56;96538.19;;;17.21;100.00
57763;BME280;43592;42.524;12.052;2023-06-10T05:07:23;96542.06;;;17.31;100.00
57763;BME280;43592;42.524;12.052;2023-06-10T05:09:49;96532.38;;;17.41;100.00
57763;BME280;43592;42.524;12.052;2023-06-10T05:12:14;96528.53;;;17.49;100.00
57763;BME280;43592;42.524;12.052;2023-06-10T05:14:40;96526.22;;;17.58;100.00
57763;BME280;43592;42.524;12.052;2023-06-10T05:17:06;96525.84;;;17.67;100.00
57763;BME280;43592;42.524;12.052;2023-06-10T05:19:32;96535.09;;;17.77;100.00
57763;BME280;43592;42.524;12.052;2023-06-10T05:21:57;96531.63;;;17.87;100.00
57763;BME280;43592;42.524;12.052;2023-06-10T05:24:23;96531.22;;;17.99;100.00
57763;BME280;43592;42.524;12.052;2023-06-10T05:26:49;96516.50;;;18.11;100.00
57763;BME280;43592;42.524;12.052;2023-06-10T05:29:14;96519.19;;;18.22;100.00
57763;BME280;43592;42.524;12.052;2023-06-10T05:31:41;96515.66;;;18.32;100.00
57763;BME280;43592;42.524;12.052;2023-06-10T05:34:07;96528.38;;;18.42;100.00
57763;BME280;43592;42.524;12.052;2023-06-10T05:36:32;96510.56;;;18.52;100.00
57763;BME280;43592;42.524;12.052;2023-06-10T05:38:58;96518.25;;;18.60;100.00
57763;BME280;43592;42.524;12.052;2023-06-10T05:41:23;96520.94;;;18.68;100.00
57763;BME280;43592;42.524;12.052;2023-06-10T05:43:49;96512.38;;;18.73;100.00
57763;BME280;43592;42.524;12.052;2023-06-10T05:46:14;96507.75;;;18.80;100.00
57763;BME280;43592;42.524;12.052;2023-06-10T05:48:40;96517.34;;;18.92;100.00
57763;BME280;43592;42.524;12.052;2023-06-10T05:51:05;96517.66;;;19.05;100.00
57763;BME280;43592;42.524;12.052;2023-06-10T05:53:31;96511.34;;;19.19;100.00
57763;BME280;43592;42.524;12.052;2023-06-10T05:55:57;96505.47;;;19.31;100.00
57763;BME280;43592;42.524;12.052;2023-06-10T05:58:23;96505.75;;;19.44;100.00
57763;BME280;43592;42.524;12.052;2023-06-10T06:00:48;96508.34;;;19.62;100.00
57763;BME280;43592;42.524;12.052;2023-06-10T06:03:14;96513.84;;;19.96;100.00
57763;BME280;43592;42.524;12.052;2023-06-10T06:05:40;96507.69;;;20.60;100.00
57763;BME280;43592;42.524;12.052;2023-06-10T06:08:05;96511.28;;;21.39;100.00
57763;BME280;43592;42.524;12.052;2023-06-10T06:10:31;96501.53;;;22.32;100.00
57763;BME280;43592;42.524;12.052;2023-06-10T06:12:57;96504.31;;;23.04;100.00
57763;BME280;43592;42.524;12.052;2023-06-10T06:15:23;96517.78;;;23.61;100.00
57763;BME280;43592;42.524;12.052;2023-06-10T06:17:49;96517.66;;;23.84;100.00
57763;BME280;43592;42.524;12.052;2023-06-10T06:20:14;96509.03;;;23.69;100.00
57763;BME280;43592;42.524;12.052;2023-06-10T06:22:40;96506.38;;;23.49;100.00
57763;BME280;43592;42.524;12.052;2023-06-10T06:25:05;96506.09;;;23.44;100.00
57763;BME280;43592;42.524;12.052;2023-06-10T06:27:31;96506.03;;;23.64;100.00
57763;BME280;43592;42.524;12.052;2023-06-10T06:29:57;96495.31;;;24.02;100.00
57763;BME280;43592;42.524;12.052;2023-06-10T06:32:22;96501.63;;;24.28;100.00
57763;BME280;43592;42.524;12.052;2023-06-10T06:34:50;96503.19;;;24.71;100.00
57763;BME280;43592;42.524;12.052;2023-06-10T06:37:22;96484.41;;;25.24;100.00
57763;BME280;43592;42.524;12.052;2023-06-10T06:39:51;96482.91;;;25.71;100.00
57763;BME280;43592;42.524;12.052;2023-06-10T06:42:18;96479.84;;;26.26;100.00
57763;BME280;43592;42.524;12.052;2023-06-10T06:44:44;96480.66;;;26.79;100.00
57763;BME280;43592;42.524;12.052;2023-06-10T06:47:09;96484.97;;;27.21;100.00
57763;BME280;43592;42.524;12.052;2023-06-10T06:49:35;96494.38;;;27.60;100.00
57763;BME280;43592;42.524;12.052;2023-06-10T06:52:01;96501.16;;;27.96;100.00
57763;BME280;43592;42.524;12.052;2023-06-10T06:54:27;96497.34;;;28.12;100.00
57763;BME280;43592;42.524;12.052;2023-06-10T06:56:53;96498.09;;;28.21;100.00
57763;BME280;43592;42.524;12.052;2023-06-10T06:59:19;96497.19;;;28.34;100.00
57763;BME280;43592;42.524;12.052;2023-06-10T07:01:45;96497.47;;;27.71;100.00
57763;BME280;43592;42.524;12.052;2023-06-10T07:04:11;96490.28;;;27.15;100.00
57763;BME280;43592;42.524;12.052;2023-06-10T07:06:37;96485.06;;;26.77;100.00
57763;BME280;43592;42.524;12.052;2023-06-10T07:09:03;96485.28;;;26.16;100.00
57763;BME280;43592;42.524;12.052;2023-06-10T07:11:30;96484.72;;;25.26;98.75
57763;BME280;43592;42.524;12.052;2023-06-10T07:13:56;96489.91;;;24.57;100.00
57763;BME280;43592;42.524;12.052;2023-06-10T07:16:22;96495.03;;;24.97;100.00
57763;BME280;43592;42.524;12.052;2023-06-10T07:18:48;96502.78;;;25.62;100.00
57763;BME280;43592;42.524;12.052;2023-06-10T07:21:13;96507.41;;;25.40;100.00
57763;BME280;43592;42.524;12.052;2023-06-10T07:23:42;96504.19;;;24.90;100.00
57763;BME280;43592;42.524;12.052;2023-06-10T07:26:08;96502.16;;;24.23;100.00
57763;BME280;43592;42.524;12.052;2023-06-10T07:28:36;96503.84;;;23.75;100.00
57763;BME280;43592;42.524;12.052;2023-06-10T07:31:03;96503.31;;;23.31;100.00
57763;BME280;43592;42.524;12.052;2023-06-10T07:33:28;96502.19;;;23.12;100.00
57763;BME280;43592;42.524;12.052;2023-06-10T07:35:54;96507.91;;;23.67;100.00
57763;BME280;43592;42.524;12.052;2023-06-10T07:38:20;96502.28;;;24.49;100.00
57763;BME280;43592;42.524;12.052;2023-06-10T07:40:46;96509.63;;;25.67;100.00
57763;BME280;43592;42.524;12.052;2023-06-10T07:43:11;96492.88;;;26.34;100.00
57763;BME280;43592;42.524;12.052;2023-06-10T07:45:39;96503.38;;;26.80;100.00
57763;BME280;43592;42.524;12.052;2023-06-10T07:48:05;96504.84;;;27.03;100.00
57763;BME280;43592;42.524;12.052;2023-06-10T07:50:30;96507.69;;;26.59;100.00
57763;BME280;43592;42.524;12.052;2023-06-10T07:52:56;96520.13;;;25.94;100.00
57763;BME280;43592;42.524;12.052;2023-06-10T07:55:22;96513.34;;;25.25;100.00
57763;BME280;43592;42.524;12.052;2023-06-10T07:57:47;96518.59;;;25.20;100.00
57763;BME280;43592;42.524;12.052;2023-06-10T08:00:13;96515.28;;;25.38;100.00
57763;BME280;43592;42.524;12.052;2023-06-10T08:02:39;96514.25;;;25.83;100.00
57763;BME280;43592;42.524;12.052;2023-06-10T08:05:05;96513.28;;;26.77;100.00
57763;BME280;43592;42.524;12.052;2023-06-10T08:07:30;96516.91;;;27.46;93.34
57763;BME280;43592;42.524;12.052;2023-06-10T08:09:57;96523.19;;;28.14;94.32
57763;BME280;43592;42.524;12.052;2023-06-10T08:12:22;96527.22;;;27.73;95.37
57763;BME280;43592;42.524;12.052;2023-06-10T08:14:48;96524.78;;;27.16;96.82
57763;BME280;43592;42.524;12.052;2023-06-10T08:17:13;96520.91;;;26.51;94.36
57763;BME280;43592;42.524;12.052;2023-06-10T08:19:39;96519.75;;;26.61;99.82
57763;BME280;43592;42.524;12.052;2023-06-10T08:22:05;96510.91;;;26.67;94.59
57763;BME280;43592;42.524;12.052;2023-06-10T08:24:30;96516.69;;;26.91;97.66
57763;BME280;43592;42.524;12.052;2023-06-10T08:26:56;96516.59;;;27.03;94.87
57763;BME280;43592;42.524;12.052;2023-06-10T08:29:23;96519.59;;;27.18;96.46
57763;BME280;43592;42.524;12.052;2023-06-10T08:31:49;96528.19;;;26.98;86.56
57763;BME280;43592;42.524;12.052;2023-06-10T08:34:14;96521.97;;;26.54;97.16
57763;BME280;43592;42.524;12.052;2023-06-10T08:36:40;96521.22;;;25.96;89.71
57763;BME280;43592;42.524;12.052;2023-06-10T08:39:06;96529.59;;;25.67;100.00
57763;BME280;43592;42.524;12.052;2023-06-10T08:41:35;96525.44;;;25.63;100.00
57763;BME280;43592;42.524;12.052;2023-06-10T08:44:04;96516.28;;;25.79;100.00
57763;BME280;43592;42.524;12.052;2023-06-10T08:46:33;96514.13;;;25.86;100.00
57763;BME280;43592;42.524;12.052;2023-06-10T08:49:01;96521.25;;;25.84;100.00
57763;BME280;43592;42.524;12.052;2023-06-10T08:51:27;96522.47;;;25.83;100.00
57763;BME280;43592;42.524;12.052;2023-06-10T08:54:05;96522.25;;;25.64;100.00
57763;BME280;43592;42.524;12.052;2023-06-10T08:56:36;96513.75;;;25.37;100.00
57763;BME280;43592;42.524;12.052;2023-06-10T08:59:04;96518.88;;;25.09;100.00
57763;BME280;43592;42.524;12.052;2023-06-10T09:01:30;96510.44;;;25.03;100.00
57763;BME280;43592;42.524;12.052;2023-06-10T09:03:56;96518.28;;;25.91;100.00
57763;BME280;43592;42.524;12.052;2023-06-10T09:06:22;96511.66;;;26.89;95.76
57763;BME280;43592;42.524;12.052;2023-06-10T09:08:48;96518.72;;;27.98;80.62
57763;BME280;43592;42.524;12.052;2023-06-10T09:11:15;96511.91;;;28.92;75.48
57763;BME280;43592;42.524;12.052;2023-06-10T09:13:40;96520.69;;;29.57;69.94
57763;BME280;43592;42.524;12.052;2023-06-10T09:16:06;96519.31;;;29.85;70.60
57763;BME280;43592;42.524;12.052;2023-06-10T09:18:31;96521.16;;;29.22;72.21
57763;BME280;43592;42.524;12.052;2023-06-10T09:20:57;96524.22;;;28.63;72.21
57763;BME280;43592;42.524;12.052;2023-06-10T09:23:23;96514.00;;;27.99;73.95
57763;BME280;43592;42.524;12.052;2023-06-10T09:25:55;96519.03;;;27.33;76.08
57763;BME280;43592;42.524;12.052;2023-06-10T09:28:21;96513.16;;;26.37;82.62
57763;BME280;43592;42.524;12.052;2023-06-10T09:30:47;96510.50;;;25.76;99.09
57763;BME280;43592;42.524;12.052;2023-06-10T09:33:13;96516.94;;;25.22;100.00
57763;BME280;43592;42.524;12.052;2023-06-10T09:35:48;96514.25;;;24.68;100.00
57763;BME280;43592;42.524;12.052;2023-06-10T09:38:15;96507.38;;;24.17;100.00
57763;BME280;43592;42.524;12.052;2023-06-10T09:40:51;96508.09;;;23.76;100.00
57763;BME280;43592;42.524;12.052;2023-06-10T09:43:18;96499.38;;;23.48;100.00
57763;BME280;43592;42.524;12.052;2023-06-10T09:45:44;96511.59;;;23.27;100.00
57763;BME280;43592;42.524;12.052;2023-06-10T09:48:09;96511.13;;;23.13;100.00
57763;BME280;43592;42.524;12.052;2023-06-10T09:50:41;96506.69;;;23.02;100.00
57763;BME280;43592;42.524;12.052;2023-06-10T09:53:07;96512.78;;;22.90;100.00
57763;BME280;43592;42.524;12.052;2023-06-10T09:55:32;96504.88;;;22.76;100.00
57763;BME280;43592;42.524;12.052;2023-06-10T09:57:58;96509.41;;;22.46;100.00
57763;BME280;43592;42.524;12.052;2023-06-10T10:00:24;96503.81;;;22.33;100.00
57763;BME280;43592;42.524;12.052;2023-06-10T10:02:51;96509.97;;;22.17;100.00
57763;BME280;43592;42.524;12.052;2023-06-10T10:05:18;96504.28;;;22.08;100.00
57763;BME280;43592;42.524;12.052;2023-06-10T10:07:44;96511.25;;;22.09;100.00
57763;BME280;43592;42.524;12.052;2023-06-10T10:10:10;96507.25;;;22.17;100.00
57763;BME280;43592;42.524;12.052;2023-06-10T10:12:39;96499.72;;;22.25;100.00
57763;BME280;43592;42.524;12.052;2023-06-10T10:15:06;96506.47;;;22.37;100.00
57763;BME280;43592;42.524;12.052;2023-06-10T10:17:33;96499.97;;;22.51;100.00
57763;BME280;43592;42.524;12.052;2023-06-10T10:20:02;96494.91;;;22.69;100.00
57763;BME280;43592;42.524;12.052;2023-06-10T10:22:38;96497.09;;;22.94;100.00
57763;BME280;43592;42.524;12.052;2023-06-10T10:25:11;96497.59;;;23.25;100.00
57763;BME280;43592;42.524;12.052;2023-06-10T10:27:44;96494.69;;;23.49;100.00
57763;BME280;43592;42.524;12.052;2023-06-10T10:30:11;96494.84;;;23.74;100.00
57763;BME280;43592;42.524;12.052;2023-06-10T10:32:43;96488.72;;;24.29;100.00
57763;BME280;43592;42.524;12.052;2023-06-10T10:35:20;96485.66;;;24.56;100.00
57763;BME280;43592;42.524;12.052;2023-06-10T10:37:48;96485.34;;;24.67;100.00
57763;BME280;43592;42.524;12.052;2023-06-10T10:40:14;96483.25;;;24.58;100.00
57763;BME280;43592;42.524;12.052;2023-06-10T10:42:40;96478.84;;;24.48;100.00
57763;BME280;43592;42.524;12.052;2023-06-10T10:45:06;96476.16;;;24.31;100.00
57763;BME280;43592;42.524;12.052;2023-06-10T10:47:32;96473.31;;;24.22;100.00
57763;BME280;43592;42.524;12.052;2023-06-10T10:49:58;96472.97;;;24.20;100.00
57763;BME280;43592;42.524;12.052;2023-06-10T10:52:25;96476.47;;;24.20;100.00
57763;BME280;43592;42.524;12.052;2023-06-10T10:54:52;96467.94;;;24.60;100.00
57763;BME280;43592;42.524;12.052;2023-06-10T10:57:19;96464.25;;;25.18;97.06
57763;BME280;43592;42.524;12.052;2023-06-10T10:59:46;96460.25;;;25.92;100.00
57763;BME280;43592;42.524;12.052;2023-06-10T11:05:05;96438.94;;;26.94;100.00
57763;BME280;43592;42.524;12.052;2023-06-10T11:07:31;96439.72;;;27.53;87.58
57763;BME280;43592;42.524;12.052;2023-06-10T11:12:24;96443.81;;;28.50;81.04
57763;BME280;43592;42.524;12.052;2023-06-10T11:14:55;96443.06;;;28.49;75.99
57763;BME280;43592;42.524;12.052;2023-06-10T11:17:21;96434.53;;;28.10;75.72
57763;BME280;43592;42.524;12.052;2023-06-10T11:19:47;96438.94;;;27.62;82.38
57763;BME280;43592;42.524;12.052;2023-06-10T11:22:18;96428.38;;;27.33;87.11
57763;BME280;43592;42.524;12.052;2023-06-10T11:24:50;96427.97;;;27.03;95.64
57763;BME280;43592;42.524;12.052;2023-06-10T11:27:19;96428.31;;;26.64;77.48
57763;BME280;43592;42.524;12.052;2023-06-10T11:29:58;96439.16;;;26.24;94.06
57763;BME280;43592;42.524;12.052;2023-06-10T11:32:43;96436.34;;;25.58;93.10
57763;BME280;43592;42.524;12.052;2023-06-10T11:35:08;96435.25;;;24.95;99.00
57763;BME280;43592;42.524;12.052;2023-06-10T11:37:34;96436.00;;;24.70;100.00
57763;BME280;43592;42.524;12.052;2023-06-10T11:40:00;96430.31;;;24.90;100.00
57763;BME280;43592;42.524;12.052;2023-06-10T11:42:26;96436.44;;;24.94;100.00
57763;BME280;43592;42.524;12.052;2023-06-10T11:44:52;96432.63;;;24.92;100.00
57763;BME280;43592;42.524;12.052;2023-06-10T11:47:18;96432.28;;;24.64;100.00
57763;BME280;43592;42.524;12.052;2023-06-10T11:49:44;96430.53;;;24.15;100.00
57763;BME280;43592;42.524;12.052;2023-06-10T11:52:09;96426.16;;;23.60;100.00
57763;BME280;43592;42.524;12.052;2023-06-10T11:54:36;96440.00;;;23.20;100.00
57763;BME280;43592;42.524;12.052;2023-06-10T11:57:02;96444.66;;;22.86;100.00
57763;BME280;43592;42.524;12.052;2023-06-10T11:59:33;96444.06;;;22.42;100.00
57763;BME280;43592;42.524;12.052;2023-06-10T12:01:58;96457.97;;;22.08;100.00
57763;BME280;43592;42.524;12.052;2023-06-10T12:04:24;96445.44;;;21.91;100.00
57763;BME280;43592;42.524;12.052;2023-06-10T12:06:51;96445.84;;;21.69;100.00
57763;BME280;43592;42.524;12.052;2023-06-10T12:11:50;96428.78;;;21.18;100.00
57763;BME280;43592;42.524;12.052;2023-06-10T12:14:49;96427.31;;;21.37;100.00
57763;BME280;43592;42.524;12.052;2023-06-10T12:17:03;96422.03;;;21.73;100.00
57763;BME280;43592;42.524;12.052;2023-06-10T12:19:30;96409.75;;;22.05;100.00
57763;BME280;43592;42.524;12.052;2023-06-10T12:21:57;96407.16;;;22.38;100.00
57763;BME280;43592;42.524;12.052;2023-06-10T12:24:25;96395.53;;;22.86;100.00
57763;BME280;43592;42.524;12.052;2023-06-10T12:26:53;96396.66;;;23.38;100.00
57763;BME280;43592;42.524;12.052;2023-06-10T12:31:52;96397.56;;;23.93;100.00
57763;BME280;43592;42.524;12.052;2023-06-10T12:34:18;96392.09;;;23.93;100.00
57763;BME280;43592;42.524;12.052;2023-06-10T12:36:47;96395.94;;;23.96;100.00
57763;BME280;43592;42.524;12.052;2023-06-10T12:39:13;96389.13;;;23.88;100.00
57763;BME280;43592;42.524;12.052;2023-06-10T12:41:39;96382.53;;;23.72;100.00
57763;BME280;43592;42.524;12.052;2023-06-10T12:44:05;96386.91;;;23.53;100.00
57763;BME280;43592;42.524;12.052;2023-06-10T12:46:37;96387.06;;;23.46;100.00
57763;BME280;43592;42.524;12.052;2023-06-10T12:49:02;96393.03;;;23.58;100.00
57763;BME280;43592;42.524;12.052;2023-06-10T12:51:28;96383.19;;;23.77;100.00